Terminal Aerodrome Forecast
Issued by NWS

Home | Current Version | Previous Version | Text Only | Print | Product List | Glossary On
Versions: 1 2 3 4 5 6 7 8 9 10 11 12 13 14 15 16 17 18 19 20 21
000
FTAK31 PANC 230602 AAA
TAFAEN
TAF AMD
PAEN 230602Z 2306/2406 02007KT P6SM FEW020 SCT100
      TEMPO 2306/2310 BKN020
     FM232100 03015KT P6SM VCSH SCT030 OVC050=

USA.gov is the U.S. government's official web portal to all federal, state and local government web resources and services.